Share

Kozienice, Poland

IMAZOVIA3 Elev 518 ft | 51.48 °N, 21.44 °E | Change Station

Current weather conditions updated 32 seconds ago

Clear
Clear
55.0 °F
Feels Like 55.0 °F
N
0.0
Wind Variable Wind from North
Gusts 0.0 mph
Sunrise 5:29 AM
Sunset 7:37 PM
Moon Waning Gibbous

Today is forecast to be Cooler than yesterday.

Pressure 29.95 in
Visibility -9999.0 miles
Clouds
Dew Point 46 °F
Humidity 70%
Rainfall -999.00 in
Snow Depth Not available.
UV Not available.
Pollen Not available.
Air Quality Not available.
Flu Activity Not available.
METAR EPWA 190030Z 08008KT CAVOK 12/09 Q1014 NOSIG

More Conditions Fewer Conditions

Pressure 29.95 in
Visibility -9999.0 miles
Clouds
Dew Point 46 °F
Humidity 70%
Rainfall -999.00 in
Snow Depth Not available.
UV Not available.
Pollen Not available.
Air Quality Not available.
Flu Activity Not available.
METAR EPWA 190030Z 08008KT CAVOK 12/09 Q1014 NOSIG

More Conditions Fewer Conditions

10-Day Weather Forecast

Almanac

Astronomy

Apr. 19, 2014 Rise Set
Actual Time 5:29 AM CEST 7:37 PM CEST
Civil Twilight 4:53 AM CEST 8:13 PM CEST
Nautical Twilight 4:08 AM CEST 8:58 PM CEST
Astronomical Twilight 3:17 AM CEST 9:50 PM CEST
Moon No Moon Rise 8:13 AM CEST
Length of Visible Light 15h 19m
Length of Day
14h 07m
Tomorrow will be 3m 47s longer.
Waning Gibbous, 84% of the Moon is Illuminated
Apr 18
Waning Gibbous
Apr 22
Last Quarter
Apr 29
New
May 6
First Quarter
May 14
Full

Yesterday's Extremes

Country Highs Country Lows

Community

  • Cloudy spring view
    Cloudy spring view
  • Old barn
    Old barn
  • What's for Lunch?
    What's for Lunch?
  • SUNRISE THROUGH THE TREES.
    SUNRISE THROUGH THE TREES.
  • Dog Wood Blossoms
    Dog Wood Blossoms

WunderPhotos

Upload Photos

1,702,549 photos uploaded!

WunderBlogs® & News

Nearby

Snow Depth

Not available.

Coastal Water Temperatures

Place Temperature
No Stations Reporting

Earthquake Activity

City Distance Mag. Time & Date
No recent earthquake activity has been reported nearby.
Minimum magnitude displayed is 2.5.

Nearby Weather Stations

Station Location Temp. Dew Point Humidity Wind Precip. Elev Updated Type
Pionki 55.0 °F 46 °F 70% North  at  0.0 mph 0.00 in / hr 518 ft 2:57 AM CEST Normal
Radom, Radom 50.6 °F 43 °F 74% NE  at  4.5 mph 0.00 in / hr 577 ft 2:56 AM CEST Normal

Show More Stations Show Fewer Stations

What do you think?

We're not finished. Please let us know what you like, what you don't like, and what you are still missing.